createdAt,value
2017-06-10T00:01:14.863Z,4.75
2017-06-10T00:03:42.505Z,5.43
2017-06-10T00:06:10.859Z,5.55
2017-06-10T00:08:38.402Z,5.80
2017-06-10T00:11:11.602Z,6.25
2017-06-10T00:13:39.145Z,5.90
2017-06-10T00:16:07.070Z,5.80
2017-06-10T00:18:34.649Z,5.65
2017-06-10T00:21:02.194Z,5.40
2017-06-10T00:23:29.791Z,6.07
2017-06-10T00:25:57.358Z,5.60
2017-06-10T00:28:25.089Z,6.00
2017-06-10T00:30:52.862Z,6.25
2017-06-10T00:33:20.401Z,5.68
2017-06-10T00:35:48.005Z,5.65
2017-06-10T00:38:15.563Z,6.00
2017-06-10T00:40:43.426Z,5.55
2017-06-10T00:43:10.983Z,5.55
2017-06-10T00:45:38.525Z,5.35
2017-06-10T00:48:11.362Z,5.70
2017-06-10T00:50:38.902Z,6.37
2017-06-10T00:53:06.485Z,6.18
2017-06-10T00:55:34.029Z,5.80
2017-06-10T00:58:01.635Z,5.62
2017-06-10T01:00:29.178Z,5.97
2017-06-10T01:02:57.570Z,6.25
2017-06-10T01:05:26.352Z,6.45
2017-06-10T01:07:54.662Z,5.85
2017-06-10T01:10:22.206Z,6.60
2017-06-10T01:12:49.793Z,5.65
2017-06-10T01:15:17.870Z,5.57
2017-06-10T01:17:45.559Z,5.43
2017-06-10T01:20:13.098Z,5.30
2017-06-10T01:22:40.686Z,5.20
2017-06-10T01:25:08.238Z,5.68
2017-06-10T01:27:35.819Z,5.68
2017-06-10T01:30:03.356Z,5.82
2017-06-10T01:32:35.826Z,5.80
2017-06-10T01:35:03.375Z,5.53
2017-06-10T01:37:30.958Z,5.60
2017-06-10T01:39:58.507Z,5.25
2017-06-10T01:42:26.086Z,5.75
2017-06-10T01:44:53.634Z,5.80
2017-06-10T01:47:21.699Z,5.20
2017-06-10T01:49:49.244Z,5.93
2017-06-10T01:52:16.800Z,5.10
2017-06-10T01:54:44.386Z,5.25
2017-06-10T01:57:12.306Z,5.70
2017-06-10T01:59:39.894Z,5.60
2017-06-10T02:02:07.441Z,5.22
2017-06-10T02:04:35.642Z,5.30
2017-06-10T02:07:03.186Z,4.78
2017-06-10T02:09:30.730Z,5.18
2017-06-10T02:11:58.441Z,4.80
2017-06-10T02:14:26.398Z,5.22
2017-06-10T02:16:53.938Z,5.15
2017-06-10T02:19:21.493Z,5.45
2017-06-10T02:21:49.584Z,4.90
2017-06-10T02:24:17.209Z,4.78
2017-06-10T02:26:44.844Z,5.68
2017-06-10T02:29:12.482Z,4.43
2017-06-10T02:31:40.129Z,5.10
2017-06-10T02:34:08.877Z,5.82
2017-06-10T02:36:36.475Z,5.30
2017-06-10T02:39:04.097Z,4.95
2017-06-10T02:41:32.085Z,4.90
2017-06-10T02:43:59.725Z,4.65
2017-06-10T02:46:27.325Z,5.20
2017-06-10T02:48:55.008Z,4.47
2017-06-10T02:51:22.692Z,5.68
2017-06-10T02:53:51.056Z,5.03
2017-06-10T02:56:19.276Z,5.15
2017-06-10T02:58:47.401Z,4.53
2017-06-10T03:01:14.994Z,4.32
2017-06-10T03:03:43.409Z,4.35
2017-06-10T03:06:13.260Z,4.90
2017-06-10T03:08:40.896Z,4.78
2017-06-10T03:11:08.480Z,5.12
2017-06-10T03:13:36.491Z,4.78
2017-06-10T03:16:04.129Z,5.15
2017-06-10T03:18:32.629Z,4.78
2017-06-10T03:21:00.980Z,4.70
2017-06-10T03:23:28.610Z,4.80
2017-06-10T03:25:56.197Z,5.18
2017-06-10T03:28:24.517Z,4.70
2017-06-10T03:30:52.100Z,4.93
2017-06-10T03:33:19.684Z,4.80
2017-06-10T03:35:47.309Z,4.80
2017-06-10T03:38:14.940Z,5.15
2017-06-10T03:40:43.389Z,4.87
2017-06-10T03:43:11.003Z,4.60
2017-06-10T03:45:43.980Z,5.55
2017-06-10T03:48:12.324Z,5.18
2017-06-10T03:50:39.908Z,5.30
2017-06-10T03:53:07.580Z,5.05
2017-06-10T03:55:35.937Z,5.32
2017-06-10T03:58:03.552Z,4.80
2017-06-10T04:00:31.133Z,4.82
2017-06-10T04:02:58.974Z,4.80
2017-06-10T04:05:26.557Z,4.80
2017-06-10T04:07:54.152Z,5.40
2017-06-10T04:10:21.788Z,5.60
2017-06-10T04:12:49.374Z,5.03
2017-06-10T04:15:17.285Z,5.07
2017-06-10T04:17:44.882Z,5.05
2017-06-10T04:20:12.760Z,4.90
2017-06-10T04:22:40.732Z,4.95
2017-06-10T04:25:08.366Z,5.15
2017-06-10T04:27:40.913Z,5.47
2017-06-10T04:30:08.509Z,4.90
2017-06-10T04:32:36.244Z,4.93
2017-06-10T04:35:03.852Z,4.82
2017-06-10T04:37:31.441Z,5.00
2017-06-10T04:39:59.457Z,5.20
2017-06-10T04:42:27.053Z,5.62
2017-06-10T04:44:54.691Z,5.07
2017-06-10T04:47:22.716Z,4.90
2017-06-10T04:49:50.353Z,5.15
2017-06-10T04:52:18.024Z,5.75
2017-06-10T04:54:57.513Z,5.05
2017-06-10T04:57:25.107Z,5.32
2017-06-10T04:59:53.084Z,5.47
2017-06-10T05:02:20.728Z,4.90
2017-06-10T05:04:48.375Z,5.40
2017-06-10T05:07:16.500Z,5.35
2017-06-10T05:09:44.334Z,5.62
2017-06-10T05:12:11.941Z,5.30
2017-06-10T05:14:40.728Z,5.93
2017-06-10T05:17:09.085Z,5.97
2017-06-10T05:19:36.832Z,6.25
2017-06-10T05:22:04.846Z,5.70
2017-06-10T05:24:32.435Z,5.72
2017-06-10T05:27:00.028Z,6.20
2017-06-10T05:29:27.921Z,6.20
2017-06-10T05:31:55.564Z,5.57
2017-06-10T05:34:23.169Z,6.20
2017-06-10T05:36:50.906Z,5.90
2017-06-10T05:39:19.294Z,6.47
2017-06-10T05:41:48.181Z,5.65
2017-06-10T05:44:16.610Z,5.78
2017-06-10T05:46:44.200Z,5.80
2017-06-10T05:49:11.824Z,5.72
2017-06-10T05:51:39.464Z,5.60
2017-06-10T05:54:07.528Z,5.20
2017-06-10T05:56:35.884Z,5.25
2017-06-10T05:59:03.476Z,5.32
2017-06-10T06:01:31.197Z,5.55
2017-06-10T06:03:58.796Z,4.93
2017-06-10T06:06:26.385Z,5.20
2017-06-10T06:08:54.424Z,5.20
2017-06-10T06:11:22.785Z,4.80
2017-06-10T06:13:50.384Z,5.07
2017-06-10T06:16:18.052Z,4.80
2017-06-10T06:18:51.290Z,4.10
2017-06-10T06:21:18.881Z,4.75
2017-06-10T06:23:47.626Z,4.82
2017-06-10T06:26:15.234Z,4.70
2017-06-10T06:28:43.628Z,4.80
2017-06-10T06:31:11.279Z,4.62
2017-06-10T06:33:38.978Z,4.35
2017-06-10T06:36:06.573Z,4.45
2017-06-10T06:38:34.212Z,4.60
2017-06-10T06:41:01.814Z,4.15
2017-06-10T06:43:34.908Z,4.05
2017-06-10T06:46:02.544Z,4.60
2017-06-10T06:48:30.141Z,3.53
2017-06-10T06:50:57.874Z,3.72
2017-06-10T06:53:25.500Z,3.70
2017-06-10T06:55:53.090Z,3.62
2017-06-10T06:58:20.779Z,3.53
2017-06-10T07:00:48.402Z,3.37
2017-06-10T07:03:16.052Z,3.50
2017-06-10T07:05:43.636Z,3.85
2017-06-10T07:08:11.605Z,3.53
2017-06-10T07:10:39.197Z,3.62
2017-06-10T07:13:07.556Z,3.83
2017-06-10T07:15:35.551Z,2.70
2017-06-10T07:18:03.229Z,3.15
2017-06-10T07:20:31.216Z,2.72
2017-06-10T07:22:58.900Z,3.30
2017-06-10T07:25:26.496Z,3.87
2017-06-10T07:27:54.852Z,3.70
2017-06-10T07:30:22.731Z,3.03
2017-06-10T07:32:50.322Z,3.92
2017-06-10T07:35:17.925Z,4.60
2017-06-10T07:37:45.607Z,4.35
2017-06-10T07:40:13.199Z,5.18
2017-06-10T07:42:41.637Z,4.53
2017-06-10T07:45:09.749Z,3.60
2017-06-10T07:47:38.116Z,3.05
2017-06-10T07:50:06.465Z,2.70
2017-06-10T07:52:34.455Z,2.60
2017-06-10T07:55:02.871Z,2.85
2017-06-10T07:57:30.467Z,2.95
2017-06-10T07:59:58.472Z,2.40
2017-06-10T08:02:26.889Z,2.55
2017-06-10T08:04:54.476Z,3.05
2017-06-10T08:07:22.171Z,2.50
2017-06-10T08:09:50.552Z,2.87
2017-06-10T08:12:18.264Z,2.80
2017-06-10T08:14:45.853Z,2.60
2017-06-10T08:17:13.607Z,2.72
2017-06-10T08:19:41.243Z,2.67
2017-06-10T08:22:09.153Z,2.30
2017-06-10T08:24:37.097Z,2.42
2017-06-10T08:27:04.758Z,2.45
2017-06-10T08:29:32.435Z,2.45
2017-06-10T08:32:00.031Z,2.00
2017-06-10T08:34:27.628Z,2.70
2017-06-10T08:36:55.253Z,2.05
2017-06-10T08:39:22.906Z,2.30
2017-06-10T08:41:50.679Z,2.45
2017-06-10T08:44:18.616Z,2.60
2017-06-10T08:46:46.201Z,2.20
2017-06-10T08:49:13.789Z,2.58
2017-06-10T08:51:42.180Z,1.90
2017-06-10T08:54:09.817Z,2.45
2017-06-10T08:56:41.128Z,2.28
2017-06-10T08:59:08.871Z,2.30
2017-06-10T09:01:36.526Z,2.55
2017-06-10T09:04:08.528Z,2.28
2017-06-10T09:06:36.403Z,2.10
2017-06-10T09:09:04.402Z,2.37
2017-06-10T09:11:31.996Z,2.10
2017-06-10T09:13:59.661Z,2.35
2017-06-10T09:16:27.505Z,2.00
2017-06-10T09:18:55.096Z,2.30
2017-06-10T09:21:23.048Z,2.40
2017-06-10T09:23:50.645Z,2.55
2017-06-10T09:26:18.234Z,2.40
2017-06-10T09:28:46.689Z,2.00
2017-06-10T09:31:14.276Z,2.45
2017-06-10T09:33:42.725Z,1.70
2017-06-10T09:36:10.377Z,1.85
2017-06-10T09:38:38.021Z,1.80
2017-06-10T09:41:05.620Z,2.12
2017-06-10T09:43:33.476Z,1.40
2017-06-10T09:46:01.079Z,1.50
2017-06-10T09:48:29.494Z,1.48
2017-06-10T09:50:57.296Z,1.35
2017-06-10T09:53:24.924Z,1.45
2017-06-10T09:55:52.696Z,1.30
2017-06-10T09:58:20.336Z,1.55
2017-06-10T10:00:47.934Z,1.23
2017-06-10T10:03:15.572Z,1.50
2017-06-10T10:05:43.185Z,1.27
2017-06-10T10:08:11.025Z,1.62
2017-06-10T10:10:38.629Z,1.27
2017-06-10T10:15:54.009Z,1.30
2017-06-10T10:18:23.312Z,1.50
2017-06-10T10:20:51.928Z,1.80
2017-06-10T10:23:36.384Z,1.50
2017-06-10T10:26:07.334Z,1.57
2017-06-10T10:28:39.092Z,1.53
2017-06-10T10:31:14.973Z,1.37
2017-06-10T10:34:07.176Z,1.13
2017-06-10T10:39:30.341Z,1.30
2017-06-10T10:54:09.350Z,1.20
2017-06-10T10:56:36.945Z,1.37
2017-06-10T10:59:05.049Z,1.20
2017-06-10T11:01:33.218Z,1.13
2017-06-10T11:04:00.760Z,1.00
2017-06-10T11:06:28.344Z,1.60
2017-06-10T11:08:56.519Z,1.23
2017-06-10T11:11:24.153Z,1.33
2017-06-10T11:13:51.761Z,1.20
2017-06-10T11:16:20.891Z,1.30
2017-06-10T11:18:48.490Z,1.33
2017-06-10T11:21:16.097Z,1.57
2017-06-10T11:23:43.889Z,1.50
2017-06-10T11:26:11.488Z,1.30
2017-06-10T11:28:39.082Z,1.37
2017-06-10T11:31:07.256Z,1.20
2017-06-10T11:33:35.609Z,1.20
2017-06-10T11:36:03.204Z,1.30
2017-06-10T11:38:31.018Z,1.40
2017-06-10T11:40:59.033Z,1.50
2017-06-10T11:43:27.384Z,1.40
2017-06-10T11:45:55.128Z,1.67
2017-06-10T11:48:23.352Z,1.37
2017-06-10T11:50:51.712Z,1.40
2017-06-10T11:53:20.486Z,1.90
2017-06-10T11:55:48.258Z,1.70
2017-06-10T11:58:15.863Z,1.40
2017-06-10T12:00:43.619Z,1.20
2017-06-10T12:03:11.288Z,1.40
2017-06-10T12:05:38.889Z,1.37
2017-06-10T12:08:11.933Z,1.57
2017-06-10T12:10:39.501Z,1.70
2017-06-10T12:13:07.086Z,1.63
2017-06-10T12:15:35.193Z,2.00
2017-06-10T12:18:02.773Z,1.40
2017-06-10T12:20:30.372Z,1.80
2017-06-10T12:22:57.981Z,1.57
2017-06-10T12:25:25.570Z,1.67
2017-06-10T12:27:53.163Z,1.27
2017-06-10T12:30:21.358Z,2.00
2017-06-10T12:32:48.944Z,1.83
2017-06-10T12:35:16.501Z,1.87
2017-06-10T12:37:44.594Z,2.10
2017-06-10T12:40:12.184Z,1.90
2017-06-10T12:42:39.731Z,1.63
2017-06-10T12:45:07.666Z,1.90
2017-06-10T12:47:36.031Z,2.03
2017-06-10T12:50:04.981Z,1.90
2017-06-10T12:52:33.434Z,1.63
2017-06-10T12:55:01.838Z,1.97
2017-06-10T12:57:29.529Z,2.10
2017-06-10T12:59:57.398Z,2.00
2017-06-10T13:02:25.585Z,2.10
2017-06-10T13:04:53.124Z,1.63
2017-06-10T13:07:20.720Z,2.67
2017-06-10T13:09:49.141Z,3.00
2017-06-10T13:12:16.687Z,2.33
2017-06-10T13:14:45.051Z,2.00
2017-06-10T13:17:12.852Z,1.87
2017-06-10T13:19:40.761Z,1.87
2017-06-10T13:22:09.999Z,5.90
2017-06-10T13:24:37.554Z,4.40
2017-06-10T13:27:05.148Z,4.50
2017-06-10T13:29:33.393Z,5.03
2017-06-10T13:32:00.985Z,2.33
2017-06-10T13:34:28.537Z,1.87
2017-06-10T13:36:56.134Z,1.80
2017-06-10T13:39:23.718Z,2.63
2017-06-10T13:41:51.426Z,2.00
2017-06-10T13:44:18.989Z,2.00
2017-06-10T13:46:46.932Z,1.80
2017-06-10T13:49:14.489Z,1.70
2017-06-10T13:51:42.078Z,2.30
2017-06-10T13:54:13.638Z,2.23
2017-06-10T13:56:41.243Z,2.30
2017-06-10T13:59:08.872Z,2.43
2017-06-10T14:01:36.641Z,1.83
2017-06-10T14:04:04.286Z,1.80
2017-06-10T14:06:31.839Z,1.90
2017-06-10T14:08:59.424Z,2.17
2017-06-10T14:11:27.408Z,2.20
2017-06-10T14:13:55.001Z,1.97
2017-06-10T14:16:23.379Z,2.27
2017-06-10T14:18:51.789Z,2.10
2017-06-10T14:21:20.072Z,2.10
2017-06-10T14:23:47.621Z,2.13
2017-06-10T14:26:15.526Z,1.93
2017-06-10T14:28:43.112Z,2.07
2017-06-10T14:31:10.715Z,2.00
2017-06-10T14:33:39.390Z,2.03
2017-06-10T14:36:06.984Z,1.77
2017-06-10T14:38:34.570Z,1.90
2017-06-10T14:41:02.213Z,1.97
2017-06-10T14:43:29.992Z,1.67
2017-06-10T14:45:58.793Z,1.77
2017-06-10T14:48:26.388Z,1.97
2017-06-10T14:50:54.077Z,1.97
2017-06-10T14:53:21.673Z,2.20
2017-06-10T14:55:49.272Z,2.07
2017-06-10T14:58:16.988Z,2.10
2017-06-10T15:00:44.666Z,2.07
2017-06-10T15:03:13.788Z,2.07
2017-06-10T15:05:41.378Z,2.10
2017-06-10T15:08:08.966Z,2.20
2017-06-10T15:10:36.573Z,1.90
2017-06-10T15:13:05.013Z,1.90
2017-06-10T15:15:33.020Z,2.00
2017-06-10T15:18:01.371Z,1.70
2017-06-10T15:20:28.962Z,2.33
2017-06-10T15:22:58.165Z,1.87
2017-06-10T15:25:25.784Z,1.87
2017-06-10T15:27:53.320Z,2.37
2017-06-10T15:30:20.937Z,2.00
2017-06-10T15:32:49.298Z,2.20
2017-06-10T15:35:16.893Z,2.17
2017-06-10T15:37:44.755Z,2.17
2017-06-10T15:40:13.110Z,1.97
2017-06-10T15:42:40.804Z,2.00
2017-06-10T15:45:08.440Z,2.20
2017-06-10T15:47:36.845Z,2.07
2017-06-10T15:50:04.451Z,2.17
2017-06-10T15:52:32.101Z,1.90
2017-06-10T15:54:59.688Z,1.90
2017-06-10T15:57:32.621Z,2.30
2017-06-10T16:00:00.207Z,2.30
2017-06-10T16:02:27.797Z,2.27
2017-06-10T16:04:56.457Z,1.90
2017-06-10T16:07:24.092Z,2.33
2017-06-10T16:09:51.681Z,2.37
2017-06-10T16:12:23.418Z,2.00
2017-06-10T16:14:51.012Z,3.43
2017-06-10T16:17:20.363Z,3.60
2017-06-10T16:19:48.089Z,5.43
2017-06-10T16:22:15.802Z,2.37
2017-06-10T16:24:47.406Z,2.23
2017-06-10T16:27:15.668Z,1.90
2017-06-10T16:29:44.001Z,2.37
2017-06-10T16:32:11.550Z,2.30
2017-06-10T16:34:39.430Z,2.23
2017-06-10T16:37:07.160Z,2.03
2017-06-10T16:39:34.710Z,3.83
2017-06-10T16:42:02.343Z,3.07
2017-06-10T16:44:30.760Z,3.60
2017-06-10T16:46:58.370Z,2.73
2017-06-10T16:49:26.522Z,1.90
2017-06-10T16:51:54.122Z,2.43
2017-06-10T16:54:21.749Z,2.27
2017-06-10T16:56:49.426Z,3.70
2017-06-10T16:59:16.990Z,3.00
2017-06-10T17:01:44.610Z,2.20
2017-06-10T17:04:13.180Z,4.83
2017-06-10T17:06:41.084Z,3.20
2017-06-10T17:09:08.704Z,2.30
2017-06-10T17:11:36.331Z,6.13
2017-06-10T17:14:03.992Z,2.10
2017-06-10T17:16:31.600Z,2.40
2017-06-10T17:19:02.190Z,2.80
2017-06-10T17:21:32.465Z,2.10
2017-06-10T17:24:07.943Z,2.70
2017-06-10T17:26:42.852Z,2.63
2017-06-10T17:29:15.343Z,2.40
2017-06-10T17:31:46.105Z,2.20
2017-06-10T17:34:18.341Z,1.90
2017-06-10T17:36:50.728Z,2.47
2017-06-10T17:39:19.798Z,1.93
2017-06-10T17:41:48.320Z,2.10
2017-06-10T17:44:17.145Z,2.20
2017-06-10T17:46:44.793Z,1.83
2017-06-10T17:49:12.745Z,2.30
2017-06-10T17:51:40.336Z,2.03
2017-06-10T17:54:07.926Z,2.27
2017-06-10T17:56:36.046Z,2.20
2017-06-10T17:59:03.642Z,2.03
2017-06-10T18:01:31.281Z,2.50
2017-06-10T18:04:00.139Z,2.20
2017-06-10T18:06:27.728Z,2.10
2017-06-10T18:08:55.362Z,2.30
2017-06-10T18:11:23.805Z,2.60
2017-06-10T18:13:51.397Z,2.07
2017-06-10T18:16:18.984Z,2.50
2017-06-10T18:18:47.395Z,2.50
2017-06-10T18:21:15.961Z,2.23
2017-06-10T18:23:48.725Z,2.50
2017-06-10T18:26:17.912Z,2.67
2017-06-10T18:28:45.572Z,2.87
2017-06-10T18:31:13.165Z,2.90
2017-06-10T18:33:40.956Z,2.80
2017-06-10T18:36:08.566Z,2.30
2017-06-10T18:38:36.228Z,2.37
2017-06-10T18:41:05.213Z,2.63
2017-06-10T18:43:33.289Z,2.70
2017-06-10T18:46:00.868Z,2.83
2017-06-10T18:48:28.462Z,2.77
2017-06-10T18:50:56.585Z,2.70
2017-06-10T18:53:24.170Z,2.60
2017-06-10T18:55:52.537Z,2.93
2017-06-10T18:58:20.279Z,2.13
2017-06-10T19:00:47.877Z,3.30
2017-06-10T19:03:16.333Z,2.30
2017-06-10T19:05:46.900Z,2.10
2017-06-10T19:08:14.614Z,2.23
2017-06-10T19:10:42.236Z,2.20
2017-06-10T19:13:09.858Z,2.17
2017-06-10T19:15:38.173Z,2.60
2017-06-10T19:18:05.856Z,2.30
2017-06-10T19:20:33.465Z,2.40
2017-06-10T19:23:02.410Z,2.40
2017-06-10T19:25:29.979Z,2.40
2017-06-10T19:27:57.597Z,2.73
2017-06-10T19:30:26.081Z,2.43
2017-06-10T19:32:54.436Z,3.00
2017-06-10T19:35:22.033Z,2.67
2017-06-10T19:37:50.093Z,2.50
2017-06-10T19:40:18.433Z,3.20
2017-06-10T19:42:46.097Z,3.20
2017-06-10T19:45:13.776Z,3.03
2017-06-10T19:47:41.428Z,3.40
2017-06-10T19:50:09.018Z,3.10
2017-06-10T19:52:38.073Z,3.50
2017-06-10T19:55:05.711Z,3.40
2017-06-10T19:57:33.323Z,3.00
2017-06-10T20:00:02.321Z,3.47
2017-06-10T20:02:30.701Z,3.40
2017-06-10T20:04:59.081Z,3.90
2017-06-10T20:07:27.858Z,3.00
2017-06-10T20:09:56.396Z,3.17
2017-06-10T20:12:23.997Z,4.40
2017-06-10T20:14:51.720Z,4.50
2017-06-10T20:17:19.325Z,4.30
2017-06-10T20:19:47.741Z,4.43
2017-06-10T20:22:15.362Z,4.45
2017-06-10T20:24:43.397Z,4.47
2017-06-10T20:27:10.954Z,3.70
2017-06-10T20:29:38.555Z,3.90
2017-06-10T20:32:06.607Z,3.80
2017-06-10T20:34:34.256Z,3.97
2017-06-10T20:37:01.908Z,3.40
2017-06-10T20:39:29.968Z,3.50
2017-06-10T20:41:57.610Z,3.90
2017-06-10T20:44:26.017Z,3.33
2017-06-10T20:46:53.637Z,3.50
2017-06-10T20:49:21.704Z,3.87
2017-06-10T20:51:49.305Z,3.85
2017-06-10T20:54:17.984Z,4.35
2017-06-10T20:56:46.083Z,4.55
2017-06-10T20:59:13.657Z,4.60
2017-06-10T21:01:41.482Z,5.12
2017-06-10T21:04:09.224Z,4.78
2017-06-10T21:06:36.889Z,5.10
2017-06-10T21:09:04.513Z,4.50
2017-06-10T21:11:32.205Z,4.53
2017-06-10T21:13:59.861Z,4.85
2017-06-10T21:16:27.488Z,4.40
2017-06-10T21:18:56.726Z,4.10
2017-06-10T21:21:24.336Z,4.00
2017-06-10T21:23:52.297Z,4.30
2017-06-10T21:26:19.997Z,4.72
2017-06-10T21:28:47.609Z,4.60
2017-06-10T21:31:15.211Z,4.43
2017-06-10T21:33:42.804Z,4.70
2017-06-10T21:36:10.910Z,4.90
2017-06-10T21:38:38.467Z,5.00
2017-06-10T21:41:06.825Z,4.57
2017-06-10T21:43:34.558Z,4.43
2017-06-10T21:46:02.145Z,4.60
2017-06-10T21:48:29.903Z,4.45
2017-06-10T21:50:57.514Z,5.25
2017-06-10T21:53:25.110Z,4.30
2017-06-10T21:55:52.865Z,4.20
2017-06-10T21:58:20.458Z,4.00
2017-06-10T22:00:48.106Z,4.12
2017-06-10T22:03:15.707Z,3.85
2017-06-10T22:05:43.468Z,4.25
2017-06-10T22:08:11.066Z,3.90
2017-06-10T22:10:38.662Z,4.20
2017-06-10T22:13:06.397Z,4.78
2017-06-10T22:15:33.993Z,4.62
2017-06-10T22:18:02.045Z,4.22
2017-06-10T22:20:31.157Z,4.30
2017-06-10T22:22:58.750Z,4.20
2017-06-10T22:25:26.825Z,5.40
2017-06-10T22:27:54.468Z,4.80
2017-06-10T22:30:22.173Z,4.70
2017-06-10T22:32:49.763Z,4.80
2017-06-10T22:35:17.425Z,4.95
2017-06-10T22:37:45.021Z,5.10
2017-06-10T22:40:12.574Z,5.18
2017-06-10T22:42:40.226Z,5.15
2017-06-10T22:45:07.829Z,4.93
2017-06-10T22:47:39.377Z,5.00
2017-06-10T22:50:06.985Z,4.93
2017-06-10T22:52:34.537Z,4.87
2017-06-10T22:55:02.126Z,5.20
2017-06-10T22:57:29.713Z,4.65
2017-06-10T22:59:57.326Z,4.40
2017-06-10T23:02:24.913Z,5.15
2017-06-10T23:04:52.509Z,5.22
2017-06-10T23:07:22.626Z,5.25
2017-06-10T23:09:50.227Z,4.80
2017-06-10T23:12:17.817Z,4.87
2017-06-10T23:14:45.514Z,4.70
2017-06-10T23:17:13.105Z,4.62
2017-06-10T23:19:40.698Z,4.90
2017-06-10T23:22:08.414Z,4.62
2017-06-10T23:24:36.118Z,5.00
2017-06-10T23:27:03.716Z,4.40
2017-06-10T23:29:31.356Z,4.80
2017-06-10T23:31:59.012Z,4.47
2017-06-10T23:34:26.600Z,4.80
2017-06-10T23:36:54.147Z,4.90
2017-06-10T23:39:22.545Z,5.20
2017-06-10T23:41:50.146Z,5.30
2017-06-10T23:44:17.750Z,5.10
2017-06-10T23:46:46.169Z,5.07
2017-06-10T23:49:13.826Z,5.18
2017-06-10T23:51:41.418Z,5.12
2017-06-10T23:54:09.014Z,4.75
2017-06-10T23:56:38.742Z,4.55
2017-06-10T23:59:06.342Z,4.32
